Terminal Aerodrome Forecast
Issued by NWS Houston/Galveston TX

Current Version | Previous Version | Text Only | Print | Product List | Glossary Off
Versions: 1 2 3 4 5 6 7 8 9 10 11 12 13 14 15 16 17 18 19 20 21 22 23 24 25 26 27 28 29 30

000
FTUS44 KHGX 261121
TAFHOU
TAF
KHOU 261121Z 2612/2712 17014KT P6SM SCT012 OVC035
     FM261500 19012G22KT P6SM BKN025 BKN040
     FM261800 23015G25KT P6SM BKN030 BKN050
     FM262200 31016KT P6SM FEW070 SCT250
     FM270300 34017KT P6SM SKC
     FM270700 36012KT P6SM SKC=

USA.gov is the U.S. government's official web portal to all federal, state and local government web resources and services.